sensor_id;sensor_type;location;lat;lon;timestamp;pressure;altitude;pressure_sealevel;temperature
15607;BMP180;7865;50.918;4.510;2024-03-29T00:03:22;98572.00;;;9.50
15607;BMP180;7865;50.918;4.510;2024-03-29T00:08:23;98569.00;;;9.50
15607;BMP180;7865;50.918;4.510;2024-03-29T00:13:24;98567.00;;;9.50
15607;BMP180;7865;50.918;4.510;2024-03-29T00:18:25;98576.00;;;9.50
15607;BMP180;7865;50.918;4.510;2024-03-29T00:23:26;98570.00;;;9.60
15607;BMP180;7865;50.918;4.510;2024-03-29T00:28:28;98569.00;;;9.60
15607;BMP180;7865;50.918;4.510;2024-03-29T00:33:29;98565.00;;;9.70
15607;BMP180;7865;50.918;4.510;2024-03-29T00:38:30;98566.00;;;9.70
15607;BMP180;7865;50.918;4.510;2024-03-29T00:43:31;98578.00;;;9.70
15607;BMP180;7865;50.918;4.510;2024-03-29T00:48:32;98565.00;;;9.70
15607;BMP180;7865;50.918;4.510;2024-03-29T00:53:33;98579.00;;;9.70
15607;BMP180;7865;50.918;4.510;2024-03-29T00:58:34;98570.00;;;9.80
15607;BMP180;7865;50.918;4.510;2024-03-29T01:03:35;98580.00;;;9.80
15607;BMP180;7865;50.918;4.510;2024-03-29T01:08:36;98586.00;;;9.80
15607;BMP180;7865;50.918;4.510;2024-03-29T01:13:37;98573.00;;;9.90
15607;BMP180;7865;50.918;4.510;2024-03-29T01:18:38;98572.00;;;9.90
15607;BMP180;7865;50.918;4.510;2024-03-29T01:23:39;98566.00;;;10.00
15607;BMP180;7865;50.918;4.510;2024-03-29T01:28:41;98557.00;;;10.00
15607;BMP180;7865;50.918;4.510;2024-03-29T01:33:42;98553.00;;;10.10
15607;BMP180;7865;50.918;4.510;2024-03-29T01:38:43;98566.00;;;10.10
15607;BMP180;7865;50.918;4.510;2024-03-29T01:43:46;98556.00;;;10.10
15607;BMP180;7865;50.918;4.510;2024-03-29T01:48:47;98543.00;;;10.00
15607;BMP180;7865;50.918;4.510;2024-03-29T01:53:50;98560.00;;;9.90
15607;BMP180;7865;50.918;4.510;2024-03-29T01:58:54;98559.00;;;9.90
15607;BMP180;7865;50.918;4.510;2024-03-29T02:03:57;98563.00;;;9.80
15607;BMP180;7865;50.918;4.510;2024-03-29T02:08:58;98574.00;;;9.70
15607;BMP180;7865;50.918;4.510;2024-03-29T02:13:59;98569.00;;;9.60
15607;BMP180;7865;50.918;4.510;2024-03-29T02:19:01;98574.00;;;9.50
15607;BMP180;7865;50.918;4.510;2024-03-29T02:24:09;98592.00;;;9.30
15607;BMP180;7865;50.918;4.510;2024-03-29T02:29:10;98580.00;;;9.10
15607;BMP180;7865;50.918;4.510;2024-03-29T02:34:11;98585.00;;;8.90
15607;BMP180;7865;50.918;4.510;2024-03-29T02:39:12;98589.00;;;8.80
15607;BMP180;7865;50.918;4.510;2024-03-29T02:44:13;98605.00;;;8.60
15607;BMP180;7865;50.918;4.510;2024-03-29T02:49:16;98599.00;;;8.30
15607;BMP180;7865;50.918;4.510;2024-03-29T02:54:17;98604.00;;;8.10
15607;BMP180;7865;50.918;4.510;2024-03-29T02:59:18;98604.00;;;8.00
15607;BMP180;7865;50.918;4.510;2024-03-29T03:04:19;98613.00;;;7.90
15607;BMP180;7865;50.918;4.510;2024-03-29T03:09:20;98614.00;;;7.80
15607;BMP180;7865;50.918;4.510;2024-03-29T03:14:41;98620.00;;;7.70
15607;BMP180;7865;50.918;4.510;2024-03-29T03:19:42;98620.00;;;7.60
15607;BMP180;7865;50.918;4.510;2024-03-29T03:24:43;98634.00;;;7.50
15607;BMP180;7865;50.918;4.510;2024-03-29T03:29:45;98631.00;;;7.40
15607;BMP180;7865;50.918;4.510;2024-03-29T03:34:46;98615.00;;;7.30
15607;BMP180;7865;50.918;4.510;2024-03-29T03:39:47;98631.00;;;7.30
15607;BMP180;7865;50.918;4.510;2024-03-29T03:44:48;98617.00;;;7.20
15607;BMP180;7865;50.918;4.510;2024-03-29T03:49:49;98625.00;;;7.20
15607;BMP180;7865;50.918;4.510;2024-03-29T03:54:50;98612.00;;;7.20
15607;BMP180;7865;50.918;4.510;2024-03-29T03:59:51;98590.00;;;7.20
15607;BMP180;7865;50.918;4.510;2024-03-29T04:04:52;98588.00;;;7.10
15607;BMP180;7865;50.918;4.510;2024-03-29T04:09:53;98582.00;;;7.10
15607;BMP180;7865;50.918;4.510;2024-03-29T04:14:54;98589.00;;;7.10
15607;BMP180;7865;50.918;4.510;2024-03-29T04:19:59;98584.00;;;7.10
15607;BMP180;7865;50.918;4.510;2024-03-29T04:25:00;98604.00;;;7.00
15607;BMP180;7865;50.918;4.510;2024-03-29T04:30:02;98579.00;;;7.00
15607;BMP180;7865;50.918;4.510;2024-03-29T04:35:04;98588.00;;;7.10
15607;BMP180;7865;50.918;4.510;2024-03-29T04:40:06;98581.00;;;7.00
15607;BMP180;7865;50.918;4.510;2024-03-29T04:45:07;98576.00;;;7.00
15607;BMP180;7865;50.918;4.510;2024-03-29T04:50:08;98571.00;;;7.00
15607;BMP180;7865;50.918;4.510;2024-03-29T04:55:11;98579.00;;;7.00
15607;BMP180;7865;50.918;4.510;2024-03-29T05:00:12;98572.00;;;7.00
15607;BMP180;7865;50.918;4.510;2024-03-29T05:05:13;98564.00;;;6.90
15607;BMP180;7865;50.918;4.510;2024-03-29T05:10:14;98564.00;;;6.90
15607;BMP180;7865;50.918;4.510;2024-03-29T05:15:16;98557.00;;;6.90
15607;BMP180;7865;50.918;4.510;2024-03-29T05:20:17;98562.00;;;6.90
15607;BMP180;7865;50.918;4.510;2024-03-29T05:25:18;98581.00;;;6.90
15607;BMP180;7865;50.918;4.510;2024-03-29T05:30:19;98592.00;;;6.90
15607;BMP180;7865;50.918;4.510;2024-03-29T05:35:20;98604.00;;;6.90
15607;BMP180;7865;50.918;4.510;2024-03-29T05:40:21;98614.00;;;6.90
15607;BMP180;7865;50.918;4.510;2024-03-29T05:45:28;98626.00;;;7.00
15607;BMP180;7865;50.918;4.510;2024-03-29T05:50:29;98632.00;;;7.00
15607;BMP180;7865;50.918;4.510;2024-03-29T05:55:30;98630.00;;;7.00
15607;BMP180;7865;50.918;4.510;2024-03-29T06:00:34;98621.00;;;7.00
15607;BMP180;7865;50.918;4.510;2024-03-29T06:05:35;98614.00;;;7.20
15607;BMP180;7865;50.918;4.510;2024-03-29T06:10:36;98617.00;;;7.30
15607;BMP180;7865;50.918;4.510;2024-03-29T06:15:37;98609.00;;;7.40
15607;BMP180;7865;50.918;4.510;2024-03-29T06:20:57;98613.00;;;7.60
15607;BMP180;7865;50.918;4.510;2024-03-29T06:25:58;98591.00;;;7.70
15607;BMP180;7865;50.918;4.510;2024-03-29T06:30:59;98604.00;;;7.90
15607;BMP180;7865;50.918;4.510;2024-03-29T06:36:03;98610.00;;;8.00
15607;BMP180;7865;50.918;4.510;2024-03-29T06:41:04;98597.00;;;7.90
15607;BMP180;7865;50.918;4.510;2024-03-29T06:46:05;98599.00;;;8.10
15607;BMP180;7865;50.918;4.510;2024-03-29T06:51:06;98604.00;;;8.40
15607;BMP180;7865;50.918;4.510;2024-03-29T06:56:08;98620.00;;;8.60
15607;BMP180;7865;50.918;4.510;2024-03-29T07:01:09;98636.00;;;9.00
15607;BMP180;7865;50.918;4.510;2024-03-29T07:06:10;98640.00;;;9.20
15607;BMP180;7865;50.918;4.510;2024-03-29T07:11:11;98636.00;;;9.10
15607;BMP180;7865;50.918;4.510;2024-03-29T07:16:12;98640.00;;;8.80
15607;BMP180;7865;50.918;4.510;2024-03-29T07:21:13;98645.00;;;8.60
15607;BMP180;7865;50.918;4.510;2024-03-29T07:26:14;98636.00;;;8.50
15607;BMP180;7865;50.918;4.510;2024-03-29T07:31:15;98630.00;;;8.70
15607;BMP180;7865;50.918;4.510;2024-03-29T07:36:16;98617.00;;;9.00
15607;BMP180;7865;50.918;4.510;2024-03-29T07:41:18;98608.00;;;9.00
15607;BMP180;7865;50.918;4.510;2024-03-29T07:46:19;98607.00;;;9.10
15607;BMP180;7865;50.918;4.510;2024-03-29T07:51:20;98625.00;;;9.30
15607;BMP180;7865;50.918;4.510;2024-03-29T07:56:21;98626.00;;;9.40
15607;BMP180;7865;50.918;4.510;2024-03-29T08:01:23;98642.00;;;9.60
15607;BMP180;7865;50.918;4.510;2024-03-29T08:06:24;98654.00;;;10.10
15607;BMP180;7865;50.918;4.510;2024-03-29T08:11:25;98640.00;;;10.20
15607;BMP180;7865;50.918;4.510;2024-03-29T08:16:26;98653.00;;;10.10
15607;BMP180;7865;50.918;4.510;2024-03-29T08:21:28;98661.00;;;10.10
15607;BMP180;7865;50.918;4.510;2024-03-29T08:26:29;98673.00;;;10.50
15607;BMP180;7865;50.918;4.510;2024-03-29T08:31:30;98677.00;;;10.80
15607;BMP180;7865;50.918;4.510;2024-03-29T08:36:31;98672.00;;;11.10
15607;BMP180;7865;50.918;4.510;2024-03-29T08:41:32;98673.00;;;11.70
15607;BMP180;7865;50.918;4.510;2024-03-29T08:46:33;98679.00;;;11.60
15607;BMP180;7865;50.918;4.510;2024-03-29T08:51:34;98696.00;;;11.70
15607;BMP180;7865;50.918;4.510;2024-03-29T08:56:35;98690.00;;;11.70
15607;BMP180;7865;50.918;4.510;2024-03-29T09:01:41;98688.00;;;12.00
15607;BMP180;7865;50.918;4.510;2024-03-29T09:06:42;98693.00;;;12.70
15607;BMP180;7865;50.918;4.510;2024-03-29T09:11:43;98702.00;;;14.00
15607;BMP180;7865;50.918;4.510;2024-03-29T09:16:44;98718.00;;;14.90
15607;BMP180;7865;50.918;4.510;2024-03-29T09:21:48;98734.00;;;15.00
15607;BMP180;7865;50.918;4.510;2024-03-29T09:26:49;98738.00;;;15.00
15607;BMP180;7865;50.918;4.510;2024-03-29T09:31:51;98749.00;;;14.80
15607;BMP180;7865;50.918;4.510;2024-03-29T09:36:52;98762.00;;;14.90
15607;BMP180;7865;50.918;4.510;2024-03-29T09:41:54;98763.00;;;15.30
15607;BMP180;7865;50.918;4.510;2024-03-29T09:46:56;98751.00;;;14.80
15607;BMP180;7865;50.918;4.510;2024-03-29T09:51:59;98740.00;;;14.70
15607;BMP180;7865;50.918;4.510;2024-03-29T09:57:02;98730.00;;;14.80
15607;BMP180;7865;50.918;4.510;2024-03-29T10:02:14;98753.00;;;15.60
15607;BMP180;7865;50.918;4.510;2024-03-29T10:07:18;98749.00;;;16.70
15607;BMP180;7865;50.918;4.510;2024-03-29T10:12:20;98762.00;;;16.70
15607;BMP180;7865;50.918;4.510;2024-03-29T10:17:21;98767.00;;;17.20
15607;BMP180;7865;50.918;4.510;2024-03-29T10:22:22;98769.00;;;17.00
15607;BMP180;7865;50.918;4.510;2024-03-29T10:27:27;98774.00;;;16.70
15607;BMP180;7865;50.918;4.510;2024-03-29T10:32:28;98803.00;;;16.70
15607;BMP180;7865;50.918;4.510;2024-03-29T10:37:29;98787.00;;;16.50
15607;BMP180;7865;50.918;4.510;2024-03-29T10:42:33;98783.00;;;17.20
15607;BMP180;7865;50.918;4.510;2024-03-29T10:47:37;98767.00;;;18.40
15607;BMP180;7865;50.918;4.510;2024-03-29T10:52:43;98763.00;;;19.20
15607;BMP180;7865;50.918;4.510;2024-03-29T10:57:45;98762.00;;;17.70
15607;BMP180;7865;50.918;4.510;2024-03-29T11:08:26;98777.00;;;18.30
15607;BMP180;7865;50.918;4.510;2024-03-29T11:14:07;98776.00;;;18.80
15607;BMP180;7865;50.918;4.510;2024-03-29T11:19:08;98779.00;;;19.00
15607;BMP180;7865;50.918;4.510;2024-03-29T11:24:10;98788.00;;;19.60
15607;BMP180;7865;50.918;4.510;2024-03-29T11:29:22;98792.00;;;19.60
15607;BMP180;7865;50.918;4.510;2024-03-29T11:34:23;98792.00;;;19.40
15607;BMP180;7865;50.918;4.510;2024-03-29T11:39:25;98803.00;;;20.00
15607;BMP180;7865;50.918;4.510;2024-03-29T11:44:26;98804.00;;;20.30
15607;BMP180;7865;50.918;4.510;2024-03-29T11:49:27;98807.00;;;20.80
15607;BMP180;7865;50.918;4.510;2024-03-29T11:54:28;98812.00;;;20.80
15607;BMP180;7865;50.918;4.510;2024-03-29T11:59:29;98818.00;;;19.80
15607;BMP180;7865;50.918;4.510;2024-03-29T12:04:30;98817.00;;;19.40
15607;BMP180;7865;50.918;4.510;2024-03-29T12:09:31;98811.00;;;19.30
15607;BMP180;7865;50.918;4.510;2024-03-29T12:14:32;98815.00;;;19.30
15607;BMP180;7865;50.918;4.510;2024-03-29T12:19:38;98808.00;;;19.40
15607;BMP180;7865;50.918;4.510;2024-03-29T12:24:42;98821.00;;;19.90
15607;BMP180;7865;50.918;4.510;2024-03-29T12:29:43;98809.00;;;19.80
15607;BMP180;7865;50.918;4.510;2024-03-29T12:34:44;98826.00;;;20.30
15607;BMP180;7865;50.918;4.510;2024-03-29T12:39:47;98829.00;;;20.20
15607;BMP180;7865;50.918;4.510;2024-03-29T12:44:50;98838.00;;;20.20
15607;BMP180;7865;50.918;4.510;2024-03-29T12:49:52;98827.00;;;20.90
15607;BMP180;7865;50.918;4.510;2024-03-29T12:54:55;98855.00;;;20.20
15607;BMP180;7865;50.918;4.510;2024-03-29T12:59:56;98834.00;;;19.70
15607;BMP180;7865;50.918;4.510;2024-03-29T13:04:59;98844.00;;;19.80
15607;BMP180;7865;50.918;4.510;2024-03-29T13:10:01;98833.00;;;20.50
15607;BMP180;7865;50.918;4.510;2024-03-29T13:15:20;98841.00;;;20.60
15607;BMP180;7865;50.918;4.510;2024-03-29T13:20:22;98849.00;;;21.00
15607;BMP180;7865;50.918;4.510;2024-03-29T13:25:24;98863.00;;;20.90
15607;BMP180;7865;50.918;4.510;2024-03-29T13:30:26;98847.00;;;20.00
15607;BMP180;7865;50.918;4.510;2024-03-29T13:35:27;98833.00;;;20.50
15607;BMP180;7865;50.918;4.510;2024-03-29T13:40:29;98835.00;;;20.30
15607;BMP180;7865;50.918;4.510;2024-03-29T13:45:31;98850.00;;;20.00
15607;BMP180;7865;50.918;4.510;2024-03-29T13:50:32;98867.00;;;20.00
15607;BMP180;7865;50.918;4.510;2024-03-29T13:55:33;98858.00;;;19.80
15607;BMP180;7865;50.918;4.510;2024-03-29T14:00:34;98864.00;;;19.60
15607;BMP180;7865;50.918;4.510;2024-03-29T14:05:35;98867.00;;;19.00
15607;BMP180;7865;50.918;4.510;2024-03-29T14:10:37;98861.00;;;19.00
15607;BMP180;7865;50.918;4.510;2024-03-29T14:15:38;98872.00;;;18.50
15607;BMP180;7865;50.918;4.510;2024-03-29T14:20:39;98867.00;;;18.30
15607;BMP180;7865;50.918;4.510;2024-03-29T14:25:40;98880.00;;;18.20
15607;BMP180;7865;50.918;4.510;2024-03-29T14:30:41;98875.00;;;17.80
15607;BMP180;7865;50.918;4.510;2024-03-29T14:35:42;98857.00;;;19.00
15607;BMP180;7865;50.918;4.510;2024-03-29T14:40:43;98890.00;;;18.70
15607;BMP180;7865;50.918;4.510;2024-03-29T14:45:44;98874.00;;;17.70
15607;BMP180;7865;50.918;4.510;2024-03-29T14:50:45;98867.00;;;19.40
15607;BMP180;7865;50.918;4.510;2024-03-29T14:55:46;98846.00;;;18.80
15607;BMP180;7865;50.918;4.510;2024-03-29T15:00:47;98830.00;;;20.10
15607;BMP180;7865;50.918;4.510;2024-03-29T15:05:48;98842.00;;;19.60
15607;BMP180;7865;50.918;4.510;2024-03-29T15:11:00;98873.00;;;18.20
15607;BMP180;7865;50.918;4.510;2024-03-29T15:16:02;98874.00;;;18.10
15607;BMP180;7865;50.918;4.510;2024-03-29T15:21:03;98882.00;;;17.90
15607;BMP180;7865;50.918;4.510;2024-03-29T15:26:05;98894.00;;;17.40
15607;BMP180;7865;50.918;4.510;2024-03-29T15:31:13;98910.00;;;17.40
15607;BMP180;7865;50.918;4.510;2024-03-29T15:36:17;98896.00;;;17.50
15607;BMP180;7865;50.918;4.510;2024-03-29T15:41:18;98895.00;;;17.30
15607;BMP180;7865;50.918;4.510;2024-03-29T15:46:19;98914.00;;;17.10
15607;BMP180;7865;50.918;4.510;2024-03-29T15:51:20;98922.00;;;16.90
15607;BMP180;7865;50.918;4.510;2024-03-29T15:56:22;98934.00;;;17.20
15607;BMP180;7865;50.918;4.510;2024-03-29T16:01:23;98916.00;;;17.20
15607;BMP180;7865;50.918;4.510;2024-03-29T16:06:25;98912.00;;;16.90
15607;BMP180;7865;50.918;4.510;2024-03-29T16:11:34;98911.00;;;16.80
15607;BMP180;7865;50.918;4.510;2024-03-29T16:16:39;98914.00;;;16.70
15607;BMP180;7865;50.918;4.510;2024-03-29T16:21:40;98904.00;;;16.60
15607;BMP180;7865;50.918;4.510;2024-03-29T16:26:41;98901.00;;;16.40
15607;BMP180;7865;50.918;4.510;2024-03-29T16:31:42;98898.00;;;16.10
15607;BMP180;7865;50.918;4.510;2024-03-29T16:36:43;98893.00;;;16.00
15607;BMP180;7865;50.918;4.510;2024-03-29T16:41:45;98896.00;;;15.70
15607;BMP180;7865;50.918;4.510;2024-03-29T16:46:48;98888.00;;;15.40
15607;BMP180;7865;50.918;4.510;2024-03-29T16:51:49;98882.00;;;15.40
15607;BMP180;7865;50.918;4.510;2024-03-29T16:56:50;98887.00;;;15.30
15607;BMP180;7865;50.918;4.510;2024-03-29T17:01:51;98887.00;;;15.30
15607;BMP180;7865;50.918;4.510;2024-03-29T17:06:52;98889.00;;;15.00
15607;BMP180;7865;50.918;4.510;2024-03-29T17:11:52;98892.00;;;14.80
15607;BMP180;7865;50.918;4.510;2024-03-29T17:16:53;98884.00;;;14.70
15607;BMP180;7865;50.918;4.510;2024-03-29T17:21:56;98885.00;;;14.60
15607;BMP180;7865;50.918;4.510;2024-03-29T17:26:58;98892.00;;;14.50
15607;BMP180;7865;50.918;4.510;2024-03-29T17:31:59;98887.00;;;14.40
15607;BMP180;7865;50.918;4.510;2024-03-29T17:37:00;98902.00;;;14.30
15607;BMP180;7865;50.918;4.510;2024-03-29T17:42:01;98901.00;;;14.20
15607;BMP180;7865;50.918;4.510;2024-03-29T17:47:03;98915.00;;;14.10
15607;BMP180;7865;50.918;4.510;2024-03-29T17:52:05;98913.00;;;14.00
15607;BMP180;7865;50.918;4.510;2024-03-29T17:57:06;98919.00;;;13.90
15607;BMP180;7865;50.918;4.510;2024-03-29T18:02:06;98918.00;;;13.80
15607;BMP180;7865;50.918;4.510;2024-03-29T18:07:08;98901.00;;;13.70
15607;BMP180;7865;50.918;4.510;2024-03-29T18:12:08;98906.00;;;13.70
15607;BMP180;7865;50.918;4.510;2024-03-29T18:17:09;98901.00;;;13.60
15607;BMP180;7865;50.918;4.510;2024-03-29T18:22:10;98912.00;;;13.50
15607;BMP180;7865;50.918;4.510;2024-03-29T18:27:12;98917.00;;;13.50
15607;BMP180;7865;50.918;4.510;2024-03-29T18:32:13;98921.00;;;13.40
15607;BMP180;7865;50.918;4.510;2024-03-29T18:37:13;98931.00;;;13.40
15607;BMP180;7865;50.918;4.510;2024-03-29T18:42:14;98942.00;;;13.40
15607;BMP180;7865;50.918;4.510;2024-03-29T18:47:15;98957.00;;;13.40
15607;BMP180;7865;50.918;4.510;2024-03-29T18:52:16;98965.00;;;13.30
15607;BMP180;7865;50.918;4.510;2024-03-29T18:57:21;98979.00;;;13.30
15607;BMP180;7865;50.918;4.510;2024-03-29T19:02:23;98978.00;;;13.20
15607;BMP180;7865;50.918;4.510;2024-03-29T19:07:23;98993.00;;;13.20
15607;BMP180;7865;50.918;4.510;2024-03-29T19:12:24;99003.00;;;13.10
15607;BMP180;7865;50.918;4.510;2024-03-29T19:17:25;98997.00;;;13.10
15607;BMP180;7865;50.918;4.510;2024-03-29T19:22:26;98995.00;;;13.00
15607;BMP180;7865;50.918;4.510;2024-03-29T19:27:27;99002.00;;;13.00
15607;BMP180;7865;50.918;4.510;2024-03-29T19:32:28;98985.00;;;12.90
15607;BMP180;7865;50.918;4.510;2024-03-29T19:37:29;99008.00;;;12.90
15607;BMP180;7865;50.918;4.510;2024-03-29T19:42:30;99000.00;;;12.80
15607;BMP180;7865;50.918;4.510;2024-03-29T19:47:31;99002.00;;;12.80
15607;BMP180;7865;50.918;4.510;2024-03-29T19:52:33;99001.00;;;12.70
15607;BMP180;7865;50.918;4.510;2024-03-29T19:57:34;99014.00;;;12.70
15607;BMP180;7865;50.918;4.510;2024-03-29T20:02:35;99010.00;;;12.70
15607;BMP180;7865;50.918;4.510;2024-03-29T20:07:37;99020.00;;;12.60
15607;BMP180;7865;50.918;4.510;2024-03-29T20:12:38;99018.00;;;12.60
15607;BMP180;7865;50.918;4.510;2024-03-29T20:17:39;99025.00;;;12.60
15607;BMP180;7865;50.918;4.510;2024-03-29T20:22:40;99038.00;;;12.50
15607;BMP180;7865;50.918;4.510;2024-03-29T20:27:41;99053.00;;;12.30
15607;BMP180;7865;50.918;4.510;2024-03-29T20:32:46;99055.00;;;12.10
15607;BMP180;7865;50.918;4.510;2024-03-29T20:37:48;99042.00;;;11.90
15607;BMP180;7865;50.918;4.510;2024-03-29T20:42:49;99051.00;;;11.70
15607;BMP180;7865;50.918;4.510;2024-03-29T20:47:50;99052.00;;;11.50
15607;BMP180;7865;50.918;4.510;2024-03-29T20:52:57;99058.00;;;11.50
15607;BMP180;7865;50.918;4.510;2024-03-29T20:57:58;99062.00;;;11.50
15607;BMP180;7865;50.918;4.510;2024-03-29T21:02:59;99067.00;;;11.50
15607;BMP180;7865;50.918;4.510;2024-03-29T21:08:19;99082.00;;;11.50
15607;BMP180;7865;50.918;4.510;2024-03-29T21:13:20;99085.00;;;11.50
15607;BMP180;7865;50.918;4.510;2024-03-29T21:18:21;99088.00;;;11.50
15607;BMP180;7865;50.918;4.510;2024-03-29T21:23:22;99088.00;;;11.50
15607;BMP180;7865;50.918;4.510;2024-03-29T21:28:23;99105.00;;;11.50
15607;BMP180;7865;50.918;4.510;2024-03-29T21:33:24;99111.00;;;11.40
15607;BMP180;7865;50.918;4.510;2024-03-29T21:38:24;99109.00;;;11.40
15607;BMP180;7865;50.918;4.510;2024-03-29T21:43:25;99117.00;;;11.40
15607;BMP180;7865;50.918;4.510;2024-03-29T21:48:27;99131.00;;;11.30
15607;BMP180;7865;50.918;4.510;2024-03-29T21:53:28;99130.00;;;11.30
15607;BMP180;7865;50.918;4.510;2024-03-29T21:58:29;99133.00;;;11.30
15607;BMP180;7865;50.918;4.510;2024-03-29T22:03:30;99137.00;;;11.30
15607;BMP180;7865;50.918;4.510;2024-03-29T22:08:31;99139.00;;;11.30
15607;BMP180;7865;50.918;4.510;2024-03-29T22:13:32;99144.00;;;11.30
15607;BMP180;7865;50.918;4.510;2024-03-29T22:18:33;99143.00;;;11.20
15607;BMP180;7865;50.918;4.510;2024-03-29T22:23:34;99140.00;;;11.10
15607;BMP180;7865;50.918;4.510;2024-03-29T22:28:35;99143.00;;;11.00
15607;BMP180;7865;50.918;4.510;2024-03-29T22:33:36;99149.00;;;11.00
15607;BMP180;7865;50.918;4.510;2024-03-29T22:38:37;99148.00;;;11.00
15607;BMP180;7865;50.918;4.510;2024-03-29T22:43:37;99144.00;;;10.90
15607;BMP180;7865;50.918;4.510;2024-03-29T22:48:38;99154.00;;;10.90
15607;BMP180;7865;50.918;4.510;2024-03-29T22:53:39;99147.00;;;10.90
15607;BMP180;7865;50.918;4.510;2024-03-29T22:58:42;99156.00;;;10.80
15607;BMP180;7865;50.918;4.510;2024-03-29T23:03:43;99146.00;;;10.80
15607;BMP180;7865;50.918;4.510;2024-03-29T23:08:44;99154.00;;;10.70
15607;BMP180;7865;50.918;4.510;2024-03-29T23:13:45;99134.00;;;10.60
15607;BMP180;7865;50.918;4.510;2024-03-29T23:18:46;99135.00;;;10.50
15607;BMP180;7865;50.918;4.510;2024-03-29T23:23:47;99133.00;;;10.40
15607;BMP180;7865;50.918;4.510;2024-03-29T23:28:48;99127.00;;;10.30
15607;BMP180;7865;50.918;4.510;2024-03-29T23:33:49;99127.00;;;10.30
15607;BMP180;7865;50.918;4.510;2024-03-29T23:38:50;99113.00;;;10.30
15607;BMP180;7865;50.918;4.510;2024-03-29T23:43:51;99101.00;;;10.30
15607;BMP180;7865;50.918;4.510;2024-03-29T23:48:52;99090.00;;;10.30
15607;BMP180;7865;50.918;4.510;2024-03-29T23:53:53;99075.00;;;10.20
15607;BMP180;7865;50.918;4.510;2024-03-29T23:58:57;99073.00;;;10.10
